Time;durP1;ratioP1;P1;durP2;ratioP2;P2;SDS_P1;SDS_P2;PMS_P1;PMS_P2;Temp;Humidity;BMP_temperature;BMP_pressure;BME280_temperature;BME280_humidity;BME280_pressure;Samples;Min_cycle;Max_cycle;Signal;HPM_P1;HPM_P2
2023/12/21 00:04:21;;;;;;;35.65;30.25;;;;;;;8.22;100.00;100097.75;10413781;28;20374;-79
2023/12/21 00:09:21;;;;;;;36.35;29.60;;;;;;;8.23;100.00;100088.44;10382237;28;20041;-77
2023/12/21 00:14:23;;;;;;;31.80;28.63;;;;;;;8.19;100.00;100076.34;10414360;28;20037;-78
2023/12/21 00:19:24;;;;;;;31.98;28.67;;;;;;;8.26;100.00;100075.03;10415073;28;20068;-79
2023/12/21 00:24:24;;;;;;;37.88;33.85;;;;;;;8.18;100.00;100053.56;10413005;28;20042;-78
2023/12/21 00:29:25;;;;;;;36.47;32.90;;;;;;;8.22;100.00;100062.91;10396905;28;20127;-81
2023/12/21 00:34:25;;;;;;;34.17;31.33;;;;;;;8.28;100.00;100052.84;10379901;28;20040;-78
2023/12/21 00:39:26;;;;;;;36.72;31.55;;;;;;;8.24;100.00;100041.53;10421117;28;20041;-78
2023/12/21 00:44:26;;;;;;;36.60;32.08;;;;;;;8.25;100.00;100048.69;10422530;28;20037;-79
2023/12/21 00:49:27;;;;;;;35.38;31.85;;;;;;;8.21;100.00;100044.81;10371631;28;20121;-80
2023/12/21 00:54:27;;;;;;;37.35;33.63;;;;;;;8.16;100.00;100020.09;10400074;28;20053;-79
2023/12/21 00:59:28;;;;;;;36.67;33.10;;;;;;;8.21;100.00;100019.31;10422195;28;20034;-78
2023/12/21 01:04:28;;;;;;;39.10;34.65;;;;;;;8.26;100.00;100019.34;10385908;28;20042;-82
2023/12/21 01:09:29;;;;;;;41.92;35.03;;;;;;;8.26;100.00;100006.47;10423103;28;20034;-75
2023/12/21 01:14:29;;;;;;;35.35;32.15;;;;;;;8.21;100.00;99981.75;10388678;28;20057;-78
2023/12/21 01:19:30;;;;;;;36.55;32.85;;;;;;;8.28;100.00;99965.91;10419485;28;20037;-77
2023/12/21 01:24:30;;;;;;;37.78;33.83;;;;;;;8.28;100.00;99970.56;10413322;28;20041;-80
2023/12/21 01:29:31;;;;;;;45.78;37.45;;;;;;;8.14;100.00;99963.84;10417887;28;20045;-79
2023/12/21 01:34:31;;;;;;;39.65;35.65;;;;;;;7.92;100.00;99931.03;10418787;28;20408;-79
2023/12/21 01:39:32;;;;;;;44.92;37.75;;;;;;;8.16;100.00;99957.03;10419469;28;20481;-79
2023/12/21 01:44:32;;;;;;;38.30;35.47;;;;;;;8.17;100.00;99947.72;10401790;28;20521;-78
2023/12/21 01:49:33;;;;;;;40.60;36.25;;;;;;;8.11;100.00;99924.09;10414127;28;20428;-77
2023/12/21 01:54:33;;;;;;;37.60;34.40;;;;;;;8.11;100.00;99910.38;10383620;28;20095;-73
2023/12/21 01:59:34;;;;;;;37.28;33.92;;;;;;;8.09;100.00;99887.88;10448361;28;21547;-78
2023/12/21 02:04:34;;;;;;;39.65;36.30;;;;;;;8.13;100.00;99879.97;10424537;28;20048;-77
2023/12/21 02:09:35;;;;;;;38.58;34.95;;;;;;;8.13;100.00;99867.09;10460891;28;20040;-77
2023/12/21 02:14:36;;;;;;;38.53;35.53;;;;;;;8.08;100.00;99839.63;10458206;28;20039;-79
2023/12/21 02:19:37;;;;;;;38.80;35.85;;;;;;;8.18;100.00;99858.88;10442329;28;20033;-77
2023/12/21 02:24:38;;;;;;;41.38;36.65;;;;;;;8.14;100.00;99833.09;10456927;28;20424;-80
2023/12/21 02:29:38;;;;;;;39.13;36.40;;;;;;;8.14;100.00;99816.63;10441314;28;20047;-78
2023/12/21 02:34:39;;;;;;;42.58;38.60;;;;;;;8.16;100.00;99828.16;10474219;28;20124;-79
2023/12/21 02:39:39;;;;;;;42.17;37.70;;;;;;;8.17;100.00;99810.63;10460642;28;20118;-78
2023/12/21 02:44:40;;;;;;;41.33;37.50;;;;;;;8.16;100.00;99802.66;10456008;28;20033;-76
2023/12/21 02:49:40;;;;;;;51.42;38.55;;;;;;;8.20;100.00;99807.34;10457527;28;20049;-79
2023/12/21 02:54:41;;;;;;;42.95;38.72;;;;;;;8.20;100.00;99788.16;10457112;28;20108;-78
2023/12/21 02:59:44;;;;;;;41.95;38.47;;;;;;;8.24;100.00;99783.78;10458454;28;20059;-80
2023/12/21 03:04:45;;;;;;;41.90;38.28;;;;;;;8.26;100.00;99759.69;10456324;28;20100;-79
2023/12/21 03:09:45;;;;;;;40.33;36.67;;;;;;;8.22;100.00;99736.63;10456297;28;20076;-79
2023/12/21 03:14:46;;;;;;;39.28;36.30;;;;;;;8.25;100.00;99714.16;10456051;28;20144;-78
2023/12/21 03:19:46;;;;;;;39.28;36.22;;;;;;;8.24;100.00;99707.03;10470785;28;20041;-79
2023/12/21 03:24:47;;;;;;;40.70;37.70;;;;;;;8.28;100.00;99697.16;10451046;28;20033;-80
2023/12/21 03:29:48;;;;;;;45.22;41.20;;;;;;;8.25;100.00;99686.75;10470786;28;20036;-77
2023/12/21 03:34:49;;;;;;;43.67;39.42;;;;;;;8.26;100.00;99671.13;10464443;28;20040;-76
2023/12/21 03:39:49;;;;;;;40.20;36.53;;;;;;;8.32;100.00;99663.75;10455924;28;20045;-79
2023/12/21 03:44:50;;;;;;;39.10;35.88;;;;;;;8.32;100.00;99663.75;10455835;28;20045;-79
2023/12/21 03:49:50;;;;;;;37.97;34.83;;;;;;;8.24;100.00;99641.22;10423228;28;20053;-77
2023/12/21 03:54:51;;;;;;;38.67;35.58;;;;;;;8.20;100.00;99623.66;10404370;28;20037;-79
2023/12/21 03:59:51;;;;;;;39.25;36.22;;;;;;;8.24;100.00;99619.28;10421024;28;20038;-77
2023/12/21 04:04:51;;;;;;;39.13;36.50;;;;;;;8.25;100.00;99599.00;10374968;28;20100;-77
2023/12/21 04:09:52;;;;;;;37.20;34.35;;;;;;;8.21;100.00;99584.19;10424465;28;20067;-77
2023/12/21 04:14:52;;;;;;;37.35;34.72;;;;;;;8.19;100.00;99545.25;10433362;28;20094;-76
2023/12/21 04:19:53;;;;;;;39.22;35.75;;;;;;;8.22;100.00;99547.44;10429380;28;20044;-77
2023/12/21 04:24:53;;;;;;;37.53;33.78;;;;;;;8.20;100.00;99526.88;10465074;28;20060;-75
2023/12/21 04:29:54;;;;;;;36.33;33.47;;;;;;;8.23;100.00;99515.38;10462033;28;20327;-77
2023/12/21 04:34:54;;;;;;;36.28;33.67;;;;;;;8.20;100.00;99511.25;10463814;28;20044;-77
2023/12/21 04:39:55;;;;;;;34.47;32.25;;;;;;;8.17;100.00;99492.63;10464996;28;20043;-77
2023/12/21 04:44:55;;;;;;;37.53;35.08;;;;;;;8.16;100.00;99463.53;10464342;28;20041;-77
2023/12/21 04:49:56;;;;;;;39.10;36.42;;;;;;;8.22;100.00;99467.13;10461189;28;20371;-76
2023/12/21 04:54:56;;;;;;;40.03;37.20;;;;;;;8.17;100.00;99429.56;10461903;28;20037;-75
2023/12/21 04:59:57;;;;;;;37.13;34.30;;;;;;;8.19;100.00;99434.78;10461914;28;20067;-74
2023/12/21 05:04:57;;;;;;;36.50;34.25;;;;;;;8.12;100.00;99424.06;10462537;28;20049;-72
2023/12/21 05:10:00;;;;;;;34.25;31.85;;;;;;;8.24;100.00;99421.88;10460568;28;20036;-76
2023/12/21 05:15:01;;;;;;;35.67;33.15;;;;;;;8.24;100.00;99426.53;10461392;28;20104;-76
2023/12/21 05:20:03;;;;;;;35.97;33.97;;;;;;;8.23;100.00;99417.50;10462414;28;20052;-78
2023/12/21 05:25:03;;;;;;;36.30;34.15;;;;;;;8.21;100.00;99400.50;10459225;28;20124;-77
2023/12/21 05:30:04;;;;;;;37.28;34.63;;;;;;;8.28;100.00;99386.50;10459199;28;20039;-76
2023/12/21 05:35:05;;;;;;;38.03;35.15;;;;;;;8.26;100.00;99359.34;10462215;28;20045;-77
2023/12/21 05:40:06;;;;;;;36.38;33.75;;;;;;;8.28;100.00;99350.88;10461321;28;20060;-80
2023/12/21 05:45:07;;;;;;;36.53;34.00;;;;;;;8.25;100.00;99324.84;10457359;28;20037;-75
2023/12/21 05:50:08;;;;;;;36.78;34.35;;;;;;;8.25;100.00;99300.16;10460491;28;20037;-77
2023/12/21 05:55:14;;;;;;;36.42;33.95;;;;;;;8.15;100.00;99270.03;10426699;28;20029;-76
2023/12/21 06:00:15;;;;;;;38.38;35.42;;;;;;;8.21;100.00;99270.84;10460829;28;20037;-77
2023/12/21 06:05:16;;;;;;;36.88;34.17;;;;;;;8.28;100.00;99261.19;10442600;28;20044;-75
2023/12/21 06:10:17;;;;;;;34.47;32.15;;;;;;;8.26;100.00;99244.22;10438141;28;20051;-77
2023/12/21 06:15:17;;;;;;;34.70;32.47;;;;;;;7.99;100.00;99172.50;10459297;28;20073;-76
2023/12/21 06:20:18;;;;;;;36.47;33.65;;;;;;;8.29;100.00;99205.28;10458394;28;20045;-77
2023/12/21 06:25:18;;;;;;;34.83;32.35;;;;;;;8.31;100.00;99188.56;10458252;28;20052;-77
2023/12/21 06:30:19;;;;;;;34.95;32.00;;;;;;;8.33;100.00;99177.28;10458747;28;20037;-75
2023/12/21 06:35:19;;;;;;;37.60;34.38;;;;;;;8.35;100.00;99166.84;10474292;28;20201;-79
2023/12/21 06:40:20;;;;;;;34.15;31.85;;;;;;;8.38;100.00;99141.63;10456579;28;20037;-75
2023/12/21 06:45:20;;;;;;;35.95;32.90;;;;;;;8.36;100.00;99139.16;10441350;28;20504;-77
2023/12/21 06:50:21;;;;;;;33.83;31.73;;;;;;;8.40;100.00;99122.97;10456722;28;20077;-76
2023/12/21 06:55:21;;;;;;;35.88;32.92;;;;;;;8.46;100.00;99113.66;10440332;28;20037;-78
2023/12/21 07:00:22;;;;;;;38.58;36.17;;;;;;;8.52;100.00;99119.94;10428913;28;20037;-78
2023/12/21 07:05:23;;;;;;;36.55;34.08;;;;;;;8.54;100.00;99140.47;10473327;28;20465;-78
2023/12/21 07:10:23;;;;;;;36.15;33.55;;;;;;;8.53;100.00;99116.06;10456978;28;20076;-76
2023/12/21 07:15:24;;;;;;;35.40;33.03;;;;;;;8.46;100.00;99128.16;10456821;28;20045;-74
2023/12/21 07:20:26;;;;;;;33.45;31.42;;;;;;;8.34;100.00;99080.22;10458506;28;20045;-76
2023/12/21 07:25:26;;;;;;;35.40;33.05;;;;;;;8.39;100.00;99100.22;10457994;28;20033;-76
2023/12/21 07:30:27;;;;;;;34.58;32.38;;;;;;;8.39;100.00;99081.03;10456469;28;20154;-73
2023/12/21 07:35:27;;;;;;;32.40;30.60;;;;;;;8.38;100.00;99086.78;10457214;28;20056;-74
2023/12/21 07:40:28;;;;;;;34.78;32.72;;;;;;;8.31;100.00;99076.13;10455452;28;20037;-73
2023/12/21 07:45:28;;;;;;;31.67;30.00;;;;;;;8.33;100.00;99046.50;10476159;28;20040;-72
2023/12/21 07:50:29;;;;;;;30.08;28.58;;;;;;;8.42;100.00;99061.28;10447027;28;20044;-76
2023/12/21 07:55:31;;;;;;;29.00;27.55;;;;;;;8.43;100.00;99053.88;10464796;28;20061;-73
2023/12/21 08:00:32;;;;;;;30.08;28.20;;;;;;;8.42;100.00;99046.75;10463602;28;20057;-75
2023/12/21 08:05:32;;;;;;;30.45;28.70;;;;;;;8.11;100.00;98986.63;10447846;28;20048;-73
2023/12/21 08:10:33;;;;;;;30.55;28.95;;;;;;;8.46;100.00;99007.50;10462759;28;20041;-73
2023/12/21 08:15:33;;;;;;;33.05;31.17;;;;;;;8.43;100.00;99029.19;10461589;28;20040;-76
2023/12/21 08:20:36;;;;;;;32.38;30.60;;;;;;;8.51;100.00;98984.69;10462206;28;20098;-77
2023/12/21 08:25:36;;;;;;;34.78;32.95;;;;;;;8.51;100.00;98975.66;10446279;28;20051;-73
2023/12/21 08:30:38;;;;;;;38.88;37.08;;;;;;;8.36;100.00;98954.63;10462011;28;20041;-73
2023/12/21 08:35:39;;;;;;;35.50;33.88;;;;;;;8.47;100.00;98958.94;10461617;28;20037;-72
2023/12/21 08:40:39;;;;;;;35.55;33.58;;;;;;;8.49;100.00;98934.78;10461076;28;20037;-73
2023/12/21 08:45:40;;;;;;;35.15;33.47;;;;;;;8.52;100.00;98928.75;10461934;28;20452;-73
2023/12/21 08:50:40;;;;;;;39.10;36.67;;;;;;;8.47;100.00;98920.56;10460969;28;20041;-73
2023/12/21 08:55:41;;;;;;;42.63;40.30;;;;;;;8.60;100.00;98916.31;10460896;28;20033;-72
2023/12/21 09:00:41;;;;;;;41.40;38.95;;;;;;;8.63;100.00;98908.34;10458630;28;20044;-74
2023/12/21 09:05:42;;;;;;;42.28;39.78;;;;;;;8.66;100.00;98879.50;10459411;28;20044;-75
2023/12/21 09:10:42;;;;;;;43.78;40.63;;;;;;;8.63;100.00;98875.41;10471744;28;20037;-74
2023/12/21 09:15:43;;;;;;;45.25;42.13;;;;;;;8.71;100.00;98865.75;10460781;28;20044;-75
2023/12/21 09:20:43;;;;;;;42.00;39.35;;;;;;;8.74;100.00;98864.34;10459418;28;20074;-74
2023/12/21 09:25:44;;;;;;;42.80;39.55;;;;;;;8.77;100.00;98858.28;10476084;28;20049;-70
2023/12/21 09:30:44;;;;;;;43.60;40.40;;;;;;;8.77;100.00;98828.91;10443738;28;20090;-72
2023/12/21 09:35:45;;;;;;;42.45;39.65;;;;;;;8.81;100.00;98831.91;10456922;28;20053;-72
2023/12/21 09:40:45;;;;;;;45.03;42.00;;;;;;;8.83;100.00;98804.97;10440771;28;20090;-73
2023/12/21 09:45:46;;;;;;;44.28;41.47;;;;;;;8.98;100.00;98788.31;10458644;28;20091;-73
2023/12/21 09:50:47;;;;;;;48.08;44.35;;;;;;;9.01;100.00;98826.16;10457990;28;20044;-78
2023/12/21 09:55:47;;;;;;;50.97;47.08;;;;;;;9.09;100.00;98831.00;10424757;28;20041;-72
2023/12/21 10:00:48;;;;;;;51.08;47.80;;;;;;;9.09;100.00;98795.31;10459803;28;20048;-73
2023/12/21 10:05:48;;;;;;;50.05;46.92;;;;;;;9.14;100.00;98779.88;10473247;28;20033;-75
2023/12/21 10:10:49;;;;;;;54.92;51.13;;;;;;;9.17;100.00;98768.28;10454944;28;20053;-70
2023/12/21 10:15:57;;;;;;;53.22;49.40;;;;;;;8.85;100.00;98723.19;10456260;28;20033;-73
2023/12/21 10:20:58;;;;;;;48.53;45.53;;;;;;;9.23;100.00;98773.41;10438386;28;20071;-73
2023/12/21 10:25:59;;;;;;;47.25;44.25;;;;;;;9.20;100.00;98751.22;10458833;28;20036;-72
2023/12/21 10:31:03;;;;;;;54.95;51.53;;;;;;;9.25;100.00;98760.19;10474615;28;20071;-70
2023/12/21 10:36:03;;;;;;;53.55;50.15;;;;;;;9.26;100.00;98745.38;10471877;28;20040;-73
2023/12/21 10:41:05;;;;;;;51.15;47.15;;;;;;;9.35;100.00;98744.69;10472020;28;20033;-73
2023/12/21 10:46:06;;;;;;;47.30;43.47;;;;;;;9.52;100.00;98774.34;10473415;28;20055;-72
2023/12/21 10:51:07;;;;;;;43.10;40.22;;;;;;;9.47;100.00;98745.84;10458398;28;20041;-72
2023/12/21 10:56:08;;;;;;;52.45;49.15;;;;;;;9.45;100.00;98737.09;10455543;28;20037;-73
2023/12/21 11:01:08;;;;;;;53.90;50.40;;;;;;;9.45;100.00;98726.13;10436793;28;20037;-73
2023/12/21 11:06:08;;;;;;;49.17;45.78;;;;;;;9.46;100.00;98757.13;10470586;28;20037;-72
2023/12/21 11:11:10;;;;;;;43.45;40.55;;;;;;;9.58;100.00;98759.44;10433700;28;20072;-74
2023/12/21 11:16:11;;;;;;;40.10;36.50;;;;;;;9.56;100.00;98753.41;10455638;28;20069;-73
2023/12/21 11:21:12;;;;;;;35.70;32.95;;;;;;;9.56;100.00;98746.00;10438155;28;20416;-75
2023/12/21 11:26:21;;;;;;;58.25;54.53;;;;;;;9.47;100.00;98765.09;10438777;28;20064;-71
2023/12/21 11:31:21;;;;;;;64.80;59.83;;;;;;;9.30;100.00;98742.81;10437662;28;20110;-72
2023/12/21 11:36:25;;;;;;;54.17;49.65;;;;;;;9.52;100.00;98717.50;10455227;28;20466;-75
2023/12/21 11:41:26;;;;;;;42.15;38.72;;;;;;;9.64;100.00;98733.50;10438971;28;20568;-74
2023/12/21 11:46:26;;;;;;;39.45;36.28;;;;;;;9.66;100.00;98754.06;10455504;28;20443;-74
2023/12/21 11:51:26;;;;;;;35.60;32.78;;;;;;;9.58;100.00;98751.19;10453355;28;20086;-74
2023/12/21 11:56:34;;;;;;;30.48;27.65;;;;;;;9.61;100.00;98723.09;10472851;28;20503;-73
2023/12/21 12:01:34;;;;;;;29.08;22.83;;;;;;;9.69;100.00;98769.13;10452553;28;20044;-72
2023/12/21 12:06:35;;;;;;;26.75;20.73;;;;;;;9.65;100.00;98752.44;10452979;28;20033;-76
2023/12/21 12:11:35;;;;;;;20.80;16.98;;;;;;;9.80;100.00;98734.06;10453838;28;20098;-73
2023/12/21 12:16:37;;;;;;;23.40;15.10;;;;;;;9.92;100.00;98726.13;10455103;28;20040;-73
2023/12/21 12:21:37;;;;;;;30.67;15.52;;;;;;;9.90;100.00;98720.94;10454692;28;20083;-73
2023/12/21 12:26:37;;;;;;;19.88;14.45;;;;;;;9.74;100.00;98716.84;10471288;28;20045;-72
2023/12/21 12:31:38;;;;;;;19.50;16.17;;;;;;;9.74;100.00;98700.34;10414733;28;20037;-75
2023/12/21 12:36:39;;;;;;;25.92;15.02;;;;;;;9.68;100.00;98720.81;10443253;28;20053;-72
2023/12/21 12:41:39;;;;;;;31.67;18.88;;;;;;;9.49;100.00;98726.34;10444663;28;20552;-72
2023/12/21 12:46:40;;;;;;;21.75;20.55;;;;;;;8.13;100.00;98811.72;10442466;28;20335;-72
2023/12/21 12:51:41;;;;;;;53.60;49.75;;;;;;;6.52;100.00;98804.00;10459519;28;20041;-72
2023/12/21 12:56:48;;;;;;;54.00;50.95;;;;;;;5.97;100.00;98783.88;10461151;28;20037;-73
2023/12/21 13:01:49;;;;;;;51.80;48.78;;;;;;;6.10;100.00;98816.13;10438999;28;20029;-75
2023/12/21 13:06:51;;;;;;;50.58;47.78;;;;;;;6.14;100.00;98814.47;10459519;28;20045;-73
2023/12/21 13:11:51;;;;;;;49.67;46.95;;;;;;;6.16;100.00;98838.78;10462041;28;20071;-72
2023/12/21 13:16:52;;;;;;;47.58;44.05;;;;;;;6.05;100.00;98807.91;10443680;28;20040;-72
2023/12/21 13:21:52;;;;;;;48.35;44.67;;;;;;;6.11;100.00;98811.47;10476658;28;20033;-71
2023/12/21 13:26:53;;;;;;;42.85;39.58;;;;;;;6.15;100.00;98818.84;10441632;28;20036;-73
2023/12/21 13:31:53;;;;;;;44.78;41.17;;;;;;;6.15;100.00;98834.41;10458665;28;20045;-74
2023/12/21 13:36:54;;;;;;;41.13;37.90;;;;;;;6.13;100.00;98812.81;10459098;28;20052;-74
2023/12/21 13:41:55;;;;;;;39.53;36.78;;;;;;;6.03;100.00;98826.50;10442908;28;20033;-76
2023/12/21 13:46:56;;;;;;;42.35;39.10;;;;;;;6.04;100.00;98836.34;10458954;28;20090;-70
2023/12/21 13:51:56;;;;;;;44.50;41.85;;;;;;;5.96;100.00;98831.44;10460359;28;20132;-70
2023/12/21 13:56:57;;;;;;;45.67;42.25;;;;;;;5.92;100.00;98830.31;10443468;28;20044;-73
2023/12/21 14:01:57;;;;;;;45.75;42.22;;;;;;;5.83;100.00;98825.41;10459532;28;20049;-71
2023/12/21 14:06:58;;;;;;;45.00;41.20;;;;;;;5.78;100.00;98830.84;10456722;28;20033;-70
2023/12/21 14:11:58;;;;;;;42.20;39.08;;;;;;;5.69;100.00;98837.94;10458211;28;20041;-76
2023/12/21 14:16:59;;;;;;;46.38;42.60;;;;;;;5.81;100.00;98863.09;10456284;28;20044;-71
2023/12/21 14:21:59;;;;;;;40.65;37.70;;;;;;;5.73;100.00;98833.59;10459574;28;20103;-71
2023/12/21 14:27:00;;;;;;;38.60;35.45;;;;;;;5.61;100.00;98841.22;10459035;28;20048;-74
2023/12/21 14:32:01;;;;;;;38.63;35.25;;;;;;;5.62;100.00;98854.59;10455609;28;20051;-73
2023/12/21 14:37:02;;;;;;;37.45;34.70;;;;;;;5.63;100.00;98871.78;10455205;28;20047;-72
2023/12/21 14:42:02;;;;;;;34.30;30.85;;;;;;;4.97;100.00;98747.00;10459047;28;20049;-74
2023/12/21 14:47:03;;;;;;;29.92;26.77;;;;;;;5.84;100.00;98850.78;10436639;28;20041;-74
2023/12/21 14:52:04;;;;;;;37.97;25.77;;;;;;;5.86;100.00;98865.00;10457672;28;20056;-74
2023/12/21 14:57:05;;;;;;;31.50;23.75;;;;;;;5.80;100.00;98863.34;10421092;28;20041;-74
2023/12/21 15:02:05;;;;;;;30.58;21.45;;;;;;;5.84;100.00;98867.16;10457893;28;20037;-73
2023/12/21 15:07:06;;;;;;;33.35;15.98;;;;;;;5.82;100.00;98867.44;10458887;28;20163;-74
2023/12/21 15:12:07;;;;;;;34.22;13.10;;;;;;;5.92;100.00;98858.44;10439202;28;20120;-74
2023/12/21 15:17:07;;;;;;;38.75;12.02;;;;;;;5.95;100.00;98881.69;10458146;28;20037;-72
2023/12/21 15:22:08;;;;;;;33.83;10.35;;;;;;;6.14;100.00;98877.31;10449419;28;20045;-72
2023/12/21 15:27:08;;;;;;;37.08;10.90;;;;;;;6.30;100.00;98901.88;10454025;28;20033;-71
2023/12/21 15:32:09;;;;;;;40.80;10.85;;;;;;;6.21;100.00;98905.16;10437563;28;20049;-74
2023/12/21 15:37:10;;;;;;;27.00;9.68;;;;;;;6.30;100.00;98907.34;10455039;28;20511;-73
2023/12/21 15:42:10;;;;;;;31.83;11.15;;;;;;;6.35;100.00;98921.84;10472199;28;20041;-73
2023/12/21 15:47:11;;;;;;;32.17;9.10;;;;;;;6.34;100.00;98919.38;10449250;28;20037;-75
2023/12/21 15:52:11;;;;;;;37.67;9.13;;;;;;;6.46;100.00;98922.66;10422133;28;20053;-73
2023/12/21 15:57:12;;;;;;;30.77;8.10;;;;;;;6.61;100.00;98905.41;10453248;28;20033;-76
2023/12/21 16:02:13;;;;;;;26.02;7.38;;;;;;;6.63;100.00;98901.28;10454424;28;20130;-73
2023/12/21 16:07:14;;;;;;;35.63;9.77;;;;;;;6.57;100.00;98913.31;10458219;28;20037;-72
2023/12/21 16:12:14;;;;;;;36.28;8.93;;;;;;;6.56;100.00;98892.56;10430050;28;20037;-71
2023/12/21 16:17:17;;;;;;;43.33;10.18;;;;;;;6.46;100.00;98908.97;10447552;28;24612;-73
2023/12/21 16:22:18;;;;;;;28.65;7.32;;;;;;;6.73;100.00;98929.72;10463872;28;20041;-74
2023/12/21 16:27:18;;;;;;;33.63;10.02;;;;;;;6.41;100.00;98969.94;10477500;28;20101;-74
2023/12/21 16:32:19;;;;;;;37.72;10.95;;;;;;;6.06;100.00;99000.81;10456998;28;20056;-73
2023/12/21 16:37:19;;;;;;;42.03;11.90;;;;;;;5.84;100.00;99059.16;10463310;28;20045;-73
2023/12/21 16:42:20;;;;;;;29.75;9.93;;;;;;;5.44;100.00;99027.88;10444918;28;20067;-72
2023/12/21 16:47:21;;;;;;;27.17;7.57;;;;;;;5.07;100.00;99019.75;10462274;28;20489;-73
2023/12/21 16:52:21;;;;;;;29.73;7.68;;;;;;;5.09;100.00;99030.41;10444886;28;20037;-74
2023/12/21 16:57:22;;;;;;;28.10;8.05;;;;;;;5.02;100.00;99026.00;10444000;28;20041;-74
2023/12/21 17:02:23;;;;;;;34.30;7.53;;;;;;;5.18;100.00;99035.09;10460004;28;20103;-73
2023/12/21 17:07:24;;;;;;;34.40;7.85;;;;;;;5.44;100.00;99027.06;10456109;28;20093;-73
2023/12/21 17:12:24;;;;;;;35.33;6.97;;;;;;;5.78;100.00;99021.97;10455249;28;20057;-73
2023/12/21 17:17:26;;;;;;;35.15;7.78;;;;;;;5.93;100.00;99032.13;10459321;28;20048;-72
2023/12/21 17:22:27;;;;;;;38.97;8.02;;;;;;;6.10;100.00;99029.22;10427875;28;20040;-74
2023/12/21 17:27:27;;;;;;;39.42;7.55;;;;;;;6.17;100.00;99046.16;10442085;28;20037;-75
2023/12/21 17:32:28;;;;;;;46.22;10.77;;;;;;;6.08;100.00;99045.06;10452804;28;20049;-75
2023/12/21 17:37:28;;;;;;;35.28;7.65;;;;;;;6.10;100.00;99053.81;10440788;28;20056;-74
2023/12/21 17:42:29;;;;;;;34.78;9.32;;;;;;;6.14;100.00;99054.06;10460487;28;20048;-74
2023/12/21 17:47:31;;;;;;;30.65;5.63;;;;;;;6.26;100.00;99050.03;10444256;28;20041;-72
2023/12/21 17:52:34;;;;;;;37.70;7.18;;;;;;;6.10;100.00;99042.88;10454471;28;20246;-72
2023/12/21 17:57:35;;;;;;;20.58;6.00;;;;;;;6.08;100.00;99058.72;10442397;28;20126;-75
2023/12/21 18:02:35;;;;;;;20.40;3.85;;;;;;;6.00;100.00;99139.28;10450368;28;20072;-73
2023/12/21 18:07:36;;;;;;;13.10;7.03;;;;;;;4.84;100.00;99119.94;10436359;28;20802;-74
2023/12/21 18:12:36;;;;;;;9.73;5.45;;;;;;;4.47;100.00;99116.34;10458638;28;20079;-74
2023/12/21 18:17:37;;;;;;;14.00;6.03;;;;;;;4.46;100.00;99126.41;10434095;28;20071;-73
2023/12/21 18:22:38;;;;;;;20.92;6.03;;;;;;;4.62;100.00;99144.56;10440806;28;20037;-73
2023/12/21 18:27:38;;;;;;;26.38;7.88;;;;;;;4.65;100.00;99114.06;10440643;28;20487;-74
2023/12/21 18:32:39;;;;;;;35.25;8.35;;;;;;;5.12;100.00;99128.06;10472194;28;20040;-74
2023/12/21 18:37:39;;;;;;;36.65;7.90;;;;;;;5.49;100.00;99140.88;10438221;28;20029;-73
2023/12/21 18:42:40;;;;;;;32.13;7.22;;;;;;;5.78;100.00;99138.59;10457419;28;20033;-73
2023/12/21 18:47:40;;;;;;;30.63;7.20;;;;;;;5.82;100.00;99135.06;10458591;28;20048;-74
2023/12/21 18:52:41;;;;;;;31.85;6.55;;;;;;;5.37;100.00;99083.75;10423230;28;20057;-74
2023/12/21 18:57:41;;;;;;;33.47;7.90;;;;;;;5.72;100.00;99154.13;10458006;28;20037;-73
2023/12/21 19:02:42;;;;;;;39.67;7.70;;;;;;;5.60;100.00;99143.44;10456442;28;20090;-74
2023/12/21 19:07:42;;;;;;;29.85;9.07;;;;;;;5.58;100.00;99155.66;10416765;28;20037;-74
2023/12/21 19:12:43;;;;;;;31.98;7.05;;;;;;;5.54;100.00;99173.66;10455677;28;20041;-73
2023/12/21 19:17:43;;;;;;;29.35;6.93;;;;;;;5.49;100.00;99169.00;10421541;28;20041;-73
2023/12/21 19:22:44;;;;;;;38.60;9.85;;;;;;;5.65;100.00;99180.84;10419833;28;20045;-73
2023/12/21 19:27:45;;;;;;;35.95;10.88;;;;;;;5.64;100.00;99217.41;10456267;28;21045;-73
2023/12/21 19:32:46;;;;;;;39.70;28.75;;;;;;;4.65;100.00;99228.56;10435435;28;20503;-73
2023/12/21 19:37:46;;;;;;;41.42;26.95;;;;;;;4.06;100.00;99257.50;10422328;28;20037;-73
2023/12/21 19:42:47;;;;;;;31.35;20.00;;;;;;;3.87;100.00;99252.34;10455737;28;20108;-73
2023/12/21 19:47:47;;;;;;;39.50;10.45;;;;;;;4.13;100.00;99204.47;10440280;28;20045;-74
2023/12/21 19:52:48;;;;;;;24.30;8.75;;;;;;;4.50;100.00;99230.28;10438689;28;20056;-74
2023/12/21 19:57:49;;;;;;;30.90;9.13;;;;;;;4.81;100.00;99242.34;10436974;28;20068;-74
2023/12/21 20:02:51;;;;;;;28.95;8.77;;;;;;;5.00;100.00;99249.09;10436936;28;20064;-76
2023/12/21 20:07:52;;;;;;;29.63;8.63;;;;;;;5.17;100.00;99243.53;10405754;28;20053;-77
2023/12/21 20:12:52;;;;;;;33.13;7.10;;;;;;;5.18;100.00;99260.72;10434474;28;20049;-74
2023/12/21 20:17:53;;;;;;;39.72;10.68;;;;;;;4.78;100.00;99200.06;10472764;28;20057;-75
2023/12/21 20:22:55;;;;;;;31.25;8.50;;;;;;;5.32;100.00;99286.50;10434171;28;20041;-81
2023/12/21 20:27:58;;;;;;;25.50;8.13;;;;;;;5.60;100.00;99249.03;10456499;28;20064;-75
2023/12/21 20:32:58;;;;;;;29.27;9.05;;;;;;;5.61;100.00;99261.63;10470265;28;20056;-74
2023/12/21 20:37:59;;;;;;;27.52;8.38;;;;;;;5.61;100.00;99283.47;10453378;28;20040;-73
2023/12/21 20:42:59;;;;;;;36.17;7.22;;;;;;;5.77;100.00;99289.88;10455937;28;20045;-71
2023/12/21 20:48:00;;;;;;;28.20;9.63;;;;;;;5.54;100.00;99312.88;10454488;28;20045;-74
2023/12/21 20:53:00;;;;;;;35.05;9.68;;;;;;;5.47;100.00;99343.94;10472061;28;20491;-74
2023/12/21 20:58:02;;;;;;;31.83;10.82;;;;;;;5.45;100.00;99327.00;10428246;28;20037;-77
2023/12/21 21:03:03;;;;;;;32.00;8.52;;;;;;;5.44;100.00;99338.19;10462677;28;20194;-77
2023/12/21 21:08:04;;;;;;;34.60;13.40;;;;;;;5.49;100.00;99422.03;10441502;28;20472;-73
2023/12/21 21:13:04;;;;;;;36.38;32.53;;;;;;;4.29;100.00;99400.84;10445968;28;20055;-72
2023/12/21 21:18:05;;;;;;;41.63;34.17;;;;;;;3.70;100.00;99396.63;10460033;28;20049;-74
2023/12/21 21:23:05;;;;;;;44.40;28.75;;;;;;;3.51;100.00;99397.91;10442526;28;20033;-74
2023/12/21 21:28:06;;;;;;;37.45;23.50;;;;;;;3.64;100.00;99413.94;10438885;28;20049;-74
2023/12/21 21:33:06;;;;;;;42.92;19.60;;;;;;;3.66;100.00;99400.06;10453781;28;20510;-75
2023/12/21 21:38:07;;;;;;;49.38;22.58;;;;;;;3.78;100.00;99420.72;10434477;28;20496;-74
2023/12/21 21:43:07;;;;;;;35.95;15.85;;;;;;;4.02;100.00;99420.56;10443610;28;20037;-75
2023/12/21 21:48:08;;;;;;;39.45;11.57;;;;;;;4.33;100.00;99410.97;10442840;28;20037;-73
2023/12/21 21:53:08;;;;;;;25.77;9.65;;;;;;;4.67;100.00;99453.72;10442021;28;20448;-75
2023/12/21 21:58:09;;;;;;;26.73;14.95;;;;;;;4.39;100.00;99436.41;10476510;28;20051;-75
2023/12/21 22:03:10;;;;;;;27.88;18.15;;;;;;;3.93;100.00;99432.94;10459287;28;20029;-74
2023/12/21 22:08:15;;;;;;;26.90;17.88;;;;;;;3.92;100.00;99456.59;10458423;28;20045;-74
2023/12/21 22:13:16;;;;;;;20.40;12.68;;;;;;;3.78;100.00;99456.13;10460629;28;20037;-75
2023/12/21 22:18:16;;;;;;;26.80;12.32;;;;;;;3.87;100.00;99436.66;10457050;28;20055;-74
2023/12/21 22:23:17;;;;;;;31.60;9.88;;;;;;;3.84;100.00;99446.97;10458795;28;20451;-74
2023/12/21 22:28:17;;;;;;;30.77;17.67;;;;;;;3.80;100.00;99508.41;10440639;28;20076;-76
2023/12/21 22:33:18;;;;;;;26.42;23.80;;;;;;;3.38;100.00;99502.41;10450711;28;20147;-76
2023/12/21 22:38:18;;;;;;;38.97;27.80;;;;;;;3.23;100.00;99473.00;10440437;28;20036;-72
2023/12/21 22:43:19;;;;;;;32.13;25.52;;;;;;;3.13;100.00;99468.16;10459265;28;20052;-76
2023/12/21 22:48:20;;;;;;;35.25;16.80;;;;;;;3.53;100.00;99491.00;10424744;28;20053;-74